createdAt,value
2023-02-26T00:00:36.153Z,3.80
2023-02-26T00:03:08.634Z,4.40
2023-02-26T00:05:21.414Z,4.70
2023-02-26T00:07:34.971Z,5.70
2023-02-26T00:09:47.625Z,5.30
2023-02-26T00:12:00.986Z,4.90
2023-02-26T00:14:15.548Z,5.60
2023-02-26T00:16:30.199Z,8.90
2023-02-26T00:18:42.969Z,5.40
2023-02-26T00:20:55.979Z,4.00
2023-02-26T00:23:14.200Z,3.80
2023-02-26T00:25:26.749Z,4.70
2023-02-26T00:27:39.643Z,4.10
2023-02-26T00:29:52.717Z,4.10
2023-02-26T00:32:05.632Z,2.60
2023-02-26T00:34:18.585Z,3.50
2023-02-26T00:36:49.088Z,3.30
2023-02-26T00:39:07.720Z,2.60
2023-02-26T00:41:20.636Z,3.60
2023-02-26T00:43:33.506Z,3.10
2023-02-26T00:46:25.186Z,2.70
2023-02-26T00:48:58.284Z,5.30
2023-02-26T00:51:23.490Z,3.00
2023-02-26T00:53:47.764Z,2.80
2023-02-26T00:56:00.254Z,2.10
2023-02-26T00:58:12.930Z,3.70
2023-02-26T01:00:25.574Z,3.60
2023-02-26T01:02:39.749Z,3.30
2023-02-26T01:04:52.665Z,4.70
2023-02-26T01:07:05.394Z,5.10
2023-02-26T01:09:35.359Z,4.70
2023-02-26T01:11:48.592Z,6.40
2023-02-26T01:14:02.049Z,5.20
2023-02-26T01:16:23.718Z,3.70
2023-02-26T01:18:47.069Z,6.20
2023-02-26T01:21:08.819Z,4.80
2023-02-26T01:23:25.912Z,3.80
2023-02-26T01:25:47.434Z,3.50
2023-02-26T01:28:00.120Z,4.00
2023-02-26T01:30:13.379Z,6.10
2023-02-26T01:32:44.703Z,14.00
2023-02-26T01:35:09.605Z,11.60
2023-02-26T01:37:46.675Z,6.60
2023-02-26T01:40:25.010Z,7.80
2023-02-26T01:42:42.732Z,11.70
2023-02-26T01:45:10.837Z,7.70
2023-02-26T01:47:33.570Z,6.70
2023-02-26T01:49:46.500Z,7.50
2023-02-26T01:52:05.832Z,7.20
2023-02-26T01:54:24.639Z,6.90
2023-02-26T01:56:38.492Z,5.80
2023-02-26T01:58:51.123Z,9.80
2023-02-26T02:01:04.643Z,7.10
2023-02-26T02:03:17.346Z,5.80
2023-02-26T02:05:43.483Z,14.60
2023-02-26T02:07:57.338Z,14.80
2023-02-26T02:10:10.610Z,16.40
2023-02-26T02:12:38.069Z,15.80
2023-02-26T02:14:56.647Z,11.50
2023-02-26T02:17:41.264Z,7.70
2023-02-26T02:20:24.698Z,9.70
2023-02-26T02:22:59.705Z,8.00
2023-02-26T02:25:45.551Z,5.40
2023-02-26T02:28:21.705Z,6.60
2023-02-26T02:31:18.946Z,11.70
2023-02-26T02:33:37.447Z,10.00
2023-02-26T02:35:59.287Z,9.00
2023-02-26T02:38:18.944Z,11.20
2023-02-26T02:40:41.543Z,8.20
2023-02-26T02:43:03.182Z,8.80
2023-02-26T02:45:47.134Z,7.40
2023-02-26T02:48:05.619Z,10.50
2023-02-26T02:50:28.131Z,12.70
2023-02-26T02:52:52.996Z,9.30
2023-02-26T02:55:12.148Z,6.60
2023-02-26T02:57:32.289Z,6.50
2023-02-26T02:59:52.093Z,4.30
2023-02-26T03:02:21.727Z,7.70
2023-02-26T03:04:35.210Z,6.00
2023-02-26T03:06:49.963Z,4.80
2023-02-26T03:09:04.535Z,6.30
2023-02-26T03:11:17.153Z,5.60
2023-02-26T03:13:29.881Z,5.90
2023-02-26T03:16:06.064Z,4.70
2023-02-26T03:18:32.943Z,3.80
2023-02-26T03:21:28.910Z,8.50
2023-02-26T03:24:14.535Z,7.00
2023-02-26T03:26:42.802Z,3.10
2023-02-26T03:29:19.808Z,3.90
2023-02-26T03:32:00.054Z,7.20
2023-02-26T03:34:21.656Z,4.70
2023-02-26T03:36:59.437Z,3.90
2023-02-26T03:39:22.512Z,3.00
2023-02-26T03:41:48.028Z,3.10
2023-02-26T03:44:06.902Z,2.80
2023-02-26T03:46:25.640Z,3.60
2023-02-26T03:48:38.531Z,3.10
2023-02-26T03:50:55.143Z,3.00
2023-02-26T03:53:12.332Z,3.60
2023-02-26T03:55:37.667Z,4.10
2023-02-26T03:57:50.392Z,3.70
2023-02-26T04:00:04.709Z,5.20
2023-02-26T04:02:22.659Z,3.90
2023-02-26T04:05:05.517Z,4.80
2023-02-26T04:07:19.640Z,3.00
2023-02-26T04:09:32.320Z,2.60
2023-02-26T04:11:46.132Z,2.50
2023-02-26T04:13:59.083Z,2.90
2023-02-26T04:16:11.941Z,3.10
2023-02-26T04:18:24.639Z,2.10
2023-02-26T04:20:37.248Z,3.00
2023-02-26T04:22:49.793Z,2.40
2023-02-26T04:25:02.357Z,2.00
2023-02-26T04:27:14.950Z,2.90
2023-02-26T04:29:27.636Z,2.50
2023-02-26T04:31:40.277Z,2.00
2023-02-26T04:33:52.825Z,2.40
2023-02-26T04:36:05.723Z,3.40
2023-02-26T04:38:18.307Z,2.60
2023-02-26T04:40:31.433Z,2.30
2023-02-26T04:42:45.817Z,2.10
2023-02-26T04:44:59.594Z,1.80
2023-02-26T04:47:12.137Z,1.70
2023-02-26T04:49:24.777Z,1.90
2023-02-26T04:51:37.388Z,2.70
2023-02-26T04:53:49.974Z,3.30
2023-02-26T04:56:02.576Z,3.30
2023-02-26T04:58:15.524Z,2.70
2023-02-26T05:00:28.322Z,4.50
2023-02-26T05:02:41.322Z,2.90
2023-02-26T05:04:53.960Z,3.00
2023-02-26T05:07:06.535Z,2.70
2023-02-26T05:09:19.187Z,2.40
2023-02-26T05:11:31.794Z,2.70
2023-02-26T05:13:44.618Z,2.70
2023-02-26T05:15:57.202Z,2.10
2023-02-26T05:18:09.999Z,2.30
2023-02-26T05:20:22.698Z,3.20
2023-02-26T05:22:35.754Z,3.10
2023-02-26T05:24:48.455Z,3.50
2023-02-26T05:27:00.995Z,2.80
2023-02-26T05:29:13.532Z,4.40
2023-02-26T05:31:26.971Z,3.30
2023-02-26T05:33:39.608Z,3.60
2023-02-26T05:35:52.540Z,3.60
2023-02-26T05:38:05.108Z,2.40
2023-02-26T05:40:17.854Z,2.10
2023-02-26T05:42:30.466Z,2.40
2023-02-26T05:44:43.024Z,2.60
2023-02-26T05:46:55.688Z,2.20
2023-02-26T05:49:08.456Z,4.30
2023-02-26T05:51:21.184Z,3.70
2023-02-26T05:53:33.770Z,3.60
2023-02-26T05:55:46.454Z,4.20
2023-02-26T05:57:59.053Z,5.00
2023-02-26T06:00:12.824Z,5.30
2023-02-26T06:02:25.644Z,4.40
2023-02-26T06:04:38.306Z,4.10
2023-02-26T06:06:50.896Z,3.70
2023-02-26T06:09:03.544Z,3.00
2023-02-26T06:11:16.122Z,3.90
2023-02-26T06:13:28.698Z,4.60
2023-02-26T06:15:41.303Z,4.80
2023-02-26T06:17:53.887Z,4.80
2023-02-26T06:20:06.809Z,4.70
2023-02-26T06:22:19.996Z,4.50
2023-02-26T06:24:32.681Z,3.00
2023-02-26T06:26:45.234Z,3.20
2023-02-26T06:28:57.909Z,2.40
2023-02-26T06:31:10.899Z,3.80
2023-02-26T06:33:24.134Z,2.40
2023-02-26T06:35:37.207Z,2.50
2023-02-26T06:37:50.234Z,3.10
2023-02-26T06:40:04.252Z,2.70
2023-02-26T06:42:19.028Z,2.50
2023-02-26T06:44:32.554Z,2.20
2023-02-26T06:46:45.144Z,2.10
2023-02-26T06:48:57.682Z,2.00
2023-02-26T06:51:10.249Z,2.20
2023-02-26T06:53:23.406Z,2.60
2023-02-26T06:55:36.032Z,2.00
2023-02-26T06:57:48.579Z,2.10
2023-02-26T07:00:01.260Z,2.00
2023-02-26T07:02:17.810Z,2.80
2023-02-26T07:04:30.435Z,2.20
2023-02-26T07:06:43.162Z,3.40
2023-02-26T07:08:56.034Z,4.20
2023-02-26T07:11:09.968Z,2.60
2023-02-26T07:13:22.471Z,5.60
2023-02-26T07:15:35.052Z,13.20
2023-02-26T07:17:47.675Z,3.50
2023-02-26T07:20:06.269Z,7.10
2023-02-26T07:22:21.913Z,9.90
2023-02-26T07:24:34.813Z,7.30
2023-02-26T07:26:47.373Z,3.80
2023-02-26T07:28:59.907Z,3.90
2023-02-26T07:31:12.556Z,4.90
2023-02-26T07:33:26.513Z,3.20
2023-02-26T07:35:39.531Z,3.10
2023-02-26T07:37:52.253Z,3.30
2023-02-26T07:40:05.588Z,4.50
2023-02-26T07:42:18.376Z,3.10
2023-02-26T07:44:30.876Z,3.20
2023-02-26T07:46:43.500Z,2.60
2023-02-26T07:48:56.074Z,4.70
2023-02-26T07:51:10.988Z,3.50
2023-02-26T07:53:23.662Z,2.70
2023-02-26T07:55:36.319Z,3.40
2023-02-26T07:57:50.107Z,5.20
2023-02-26T08:00:02.863Z,4.00
2023-02-26T08:02:15.372Z,3.50
2023-02-26T08:04:28.007Z,8.30
2023-02-26T08:06:40.672Z,12.80
2023-02-26T08:08:53.257Z,16.80
2023-02-26T08:11:05.844Z,3.70
2023-02-26T08:13:18.880Z,10.60
2023-02-26T08:15:31.395Z,6.90
2023-02-26T08:17:44.161Z,17.60
2023-02-26T08:19:56.668Z,5.50
2023-02-26T08:22:09.316Z,6.60
2023-02-26T08:24:22.503Z,3.50
2023-02-26T08:26:36.833Z,4.10
2023-02-26T08:28:50.553Z,3.30
2023-02-26T08:31:03.876Z,11.10
2023-02-26T08:33:16.526Z,4.60
2023-02-26T08:35:29.072Z,3.00
2023-02-26T08:37:41.678Z,3.20
2023-02-26T08:39:54.351Z,7.00
2023-02-26T08:42:08.642Z,11.70
2023-02-26T08:44:21.162Z,10.20
2023-02-26T08:46:34.197Z,3.80
2023-02-26T08:48:46.872Z,2.90
2023-02-26T08:50:59.478Z,7.60
2023-02-26T08:53:12.120Z,9.90
2023-02-26T08:55:24.921Z,8.10
2023-02-26T08:57:37.529Z,8.50
2023-02-26T08:59:50.023Z,18.00
2023-02-26T09:02:02.644Z,7.20
2023-02-26T09:04:15.463Z,10.70
2023-02-26T09:06:28.412Z,6.30
2023-02-26T09:08:41.078Z,4.80
2023-02-26T09:10:53.671Z,4.70
2023-02-26T09:13:06.283Z,4.90
2023-02-26T09:15:20.057Z,4.00
2023-02-26T09:17:34.042Z,3.60
2023-02-26T09:19:46.578Z,3.60
2023-02-26T09:21:59.150Z,3.00
2023-02-26T09:24:11.751Z,4.10
2023-02-26T09:26:24.794Z,4.10
2023-02-26T09:28:37.596Z,3.40
2023-02-26T09:30:54.358Z,5.40
2023-02-26T09:33:07.020Z,4.20
2023-02-26T09:35:19.626Z,2.60
2023-02-26T09:37:32.499Z,3.70
2023-02-26T09:39:45.219Z,2.90
2023-02-26T09:42:11.224Z,3.70
2023-02-26T09:44:36.484Z,4.80
2023-02-26T09:47:13.065Z,5.90
2023-02-26T09:49:32.954Z,4.00
2023-02-26T09:51:50.601Z,3.70
2023-02-26T09:54:14.839Z,3.70
2023-02-26T09:56:32.438Z,3.70
2023-02-26T09:58:45.803Z,3.20
2023-02-26T10:01:18.802Z,3.80
2023-02-26T10:03:41.833Z,3.60
2023-02-26T10:06:07.186Z,2.80
2023-02-26T10:08:22.396Z,4.00
2023-02-26T10:10:45.353Z,6.40
2023-02-26T10:13:00.609Z,5.50
2023-02-26T10:15:27.825Z,3.90
2023-02-26T10:18:00.055Z,3.60
2023-02-26T10:20:21.349Z,4.60
2023-02-26T10:22:47.168Z,3.70
2023-02-26T10:25:21.225Z,5.90
2023-02-26T10:27:59.161Z,22.50
2023-02-26T10:30:22.486Z,9.80
2023-02-26T10:32:41.255Z,4.70
2023-02-26T10:34:58.290Z,8.10
2023-02-26T10:37:43.793Z,3.90
2023-02-26T10:40:11.730Z,5.40
2023-02-26T10:42:32.617Z,5.80
2023-02-26T10:45:00.377Z,7.70
2023-02-26T10:47:37.408Z,6.20
2023-02-26T10:50:03.956Z,2.80
2023-02-26T10:52:24.643Z,10.60
2023-02-26T10:55:04.152Z,12.00
2023-02-26T10:57:47.607Z,2.20
2023-02-26T11:00:06.086Z,2.80
2023-02-26T11:02:32.599Z,7.30
2023-02-26T11:04:45.241Z,13.90
2023-02-26T11:07:00.689Z,9.50
2023-02-26T11:09:22.377Z,6.70
2023-02-26T11:11:45.797Z,3.80
2023-02-26T11:13:59.083Z,6.40
2023-02-26T11:16:15.489Z,15.20
2023-02-26T11:18:49.618Z,14.70
2023-02-26T11:21:05.423Z,6.20
2023-02-26T11:23:21.354Z,4.20
2023-02-26T11:25:36.114Z,4.40
2023-02-26T11:27:53.376Z,4.40
2023-02-26T11:30:18.561Z,6.10
2023-02-26T11:32:34.752Z,15.40
2023-02-26T11:34:51.435Z,10.30
2023-02-26T11:37:04.520Z,4.50
2023-02-26T11:39:30.282Z,7.00
2023-02-26T11:41:46.942Z,3.60
2023-02-26T11:44:06.828Z,4.50
2023-02-26T11:46:25.413Z,6.30
2023-02-26T11:48:43.210Z,6.60
2023-02-26T11:51:00.350Z,11.20
2023-02-26T11:53:31.131Z,4.00
2023-02-26T11:55:48.150Z,3.20
2023-02-26T11:58:00.837Z,3.70
2023-02-26T12:00:20.649Z,5.90
2023-02-26T12:02:37.137Z,4.70
2023-02-26T12:04:53.942Z,3.60
2023-02-26T12:07:11.549Z,3.80
2023-02-26T12:09:25.767Z,4.80
2023-02-26T12:11:56.642Z,4.10
2023-02-26T12:14:30.475Z,6.00
2023-02-26T12:17:00.741Z,4.50
2023-02-26T12:19:35.352Z,3.80
2023-02-26T12:22:29.872Z,8.10
2023-02-26T12:25:16.585Z,4.60
2023-02-26T12:27:46.256Z,3.60
2023-02-26T12:30:30.323Z,4.60
2023-02-26T12:32:45.885Z,12.10
2023-02-26T12:35:30.665Z,4.50
2023-02-26T12:37:59.644Z,3.10
2023-02-26T12:40:33.461Z,3.10
2023-02-26T12:42:59.688Z,3.00
2023-02-26T12:45:26.401Z,3.80
2023-02-26T12:47:48.572Z,8.10
2023-02-26T12:50:22.290Z,4.20
2023-02-26T12:52:58.481Z,2.60
2023-02-26T12:55:24.277Z,3.00
2023-02-26T12:57:58.552Z,3.50
2023-02-26T13:00:25.955Z,4.50
2023-02-26T13:02:57.957Z,4.10
2023-02-26T13:05:23.984Z,4.70
2023-02-26T13:07:55.086Z,3.60
2023-02-26T13:10:21.808Z,3.50
2023-02-26T13:12:48.157Z,3.00
2023-02-26T13:15:17.869Z,2.80
2023-02-26T13:18:02.996Z,4.60
2023-02-26T13:20:20.052Z,4.70
2023-02-26T13:22:39.471Z,5.00
2023-02-26T13:25:29.686Z,4.20
2023-02-26T13:27:44.711Z,3.40
2023-02-26T13:30:26.452Z,3.70
2023-02-26T13:32:42.622Z,8.10
2023-02-26T13:35:04.795Z,9.50
2023-02-26T13:37:24.063Z,13.30
2023-02-26T13:39:55.475Z,9.20
2023-02-26T13:42:38.017Z,2.50
2023-02-26T13:45:18.691Z,3.90
2023-02-26T13:47:46.501Z,3.50
2023-02-26T13:50:18.661Z,4.40
2023-02-26T13:52:34.589Z,3.50
2023-02-26T13:54:48.788Z,2.70
2023-02-26T13:57:37.325Z,3.10
2023-02-26T13:59:54.480Z,8.70
2023-02-26T14:02:19.261Z,10.60
2023-02-26T14:04:49.344Z,6.40
2023-02-26T14:07:15.967Z,8.20
2023-02-26T14:09:28.491Z,16.00
2023-02-26T14:12:01.206Z,22.20
2023-02-26T14:14:25.157Z,16.70
2023-02-26T14:16:41.428Z,7.90
2023-02-26T14:19:05.045Z,7.60
2023-02-26T14:21:26.957Z,9.00
2023-02-26T14:23:41.050Z,6.40
2023-02-26T14:25:54.901Z,10.40
2023-02-26T14:28:25.764Z,6.80
2023-02-26T14:30:46.538Z,3.30
2023-02-26T14:33:05.744Z,6.30
2023-02-26T14:35:28.067Z,5.30
2023-02-26T14:37:42.341Z,14.80
2023-02-26T14:40:09.037Z,6.60
2023-02-26T14:42:33.406Z,5.20
2023-02-26T14:44:54.381Z,8.20
2023-02-26T14:47:08.451Z,17.50
2023-02-26T14:49:27.859Z,24.60
2023-02-26T14:52:00.739Z,21.80
2023-02-26T14:54:25.603Z,3.50
2023-02-26T14:56:56.730Z,3.50
2023-02-26T14:59:46.423Z,3.20
2023-02-26T15:02:14.428Z,3.10
2023-02-26T15:04:44.975Z,3.90
2023-02-26T15:07:41.013Z,4.10
2023-02-26T15:10:14.002Z,3.70
2023-02-26T15:12:29.234Z,4.70
2023-02-26T15:14:59.167Z,5.30
2023-02-26T15:17:29.002Z,5.10
2023-02-26T15:20:09.332Z,4.30
2023-02-26T15:22:27.958Z,4.40
2023-02-26T15:24:41.040Z,4.00
2023-02-26T15:27:00.117Z,3.90
2023-02-26T15:29:14.610Z,3.90
2023-02-26T15:31:42.786Z,4.70
2023-02-26T15:33:57.045Z,4.00
2023-02-26T15:36:14.218Z,7.20
2023-02-26T15:38:27.709Z,8.60
2023-02-26T15:40:40.719Z,13.00
2023-02-26T15:42:56.360Z,7.40
2023-02-26T15:45:36.069Z,31.70
2023-02-26T15:47:55.291Z,16.10
2023-02-26T15:50:10.013Z,9.00
2023-02-26T15:52:25.426Z,8.20
2023-02-26T15:54:44.744Z,8.90
2023-02-26T15:56:57.351Z,7.30
2023-02-26T15:59:14.135Z,6.10
2023-02-26T16:01:28.799Z,11.10
2023-02-26T16:03:41.431Z,19.50
2023-02-26T16:05:55.811Z,17.80
2023-02-26T16:08:14.121Z,20.70
2023-02-26T16:10:32.861Z,14.70
2023-02-26T16:12:49.103Z,24.70
2023-02-26T16:15:07.025Z,20.30
2023-02-26T16:17:30.532Z,21.90
2023-02-26T16:19:48.860Z,20.30
2023-02-26T16:22:07.385Z,47.70
2023-02-26T16:24:23.095Z,84.20
2023-02-26T16:26:44.671Z,84.10
2023-02-26T16:29:04.367Z,51.40
2023-02-26T16:31:22.700Z,33.20
2023-02-26T16:33:35.480Z,26.10
2023-02-26T16:35:53.109Z,26.60
2023-02-26T16:38:17.130Z,30.60
2023-02-26T16:40:36.819Z,29.00
2023-02-26T16:43:24.751Z,25.30
2023-02-26T16:45:37.259Z,25.30
2023-02-26T16:47:55.449Z,19.90
2023-02-26T16:50:18.382Z,15.80
2023-02-26T16:52:31.596Z,12.70
2023-02-26T16:54:52.699Z,13.40
2023-02-26T16:57:17.281Z,13.00
2023-02-26T16:59:32.602Z,15.70
2023-02-26T17:02:01.869Z,13.30
2023-02-26T17:04:17.346Z,10.60
2023-02-26T17:06:35.701Z,23.10
2023-02-26T17:08:53.921Z,24.40
2023-02-26T17:11:08.825Z,14.70
2023-02-26T17:13:28.253Z,13.50
2023-02-26T17:15:41.227Z,15.50
2023-02-26T17:17:56.869Z,18.70
2023-02-26T17:20:11.220Z,29.10
2023-02-26T17:22:27.379Z,41.80
2023-02-26T17:24:41.765Z,63.30
2023-02-26T17:26:55.297Z,47.80
2023-02-26T17:29:17.529Z,25.80
2023-02-26T17:31:30.190Z,25.00
2023-02-26T17:33:44.741Z,25.80
2023-02-26T17:36:00.592Z,46.80
2023-02-26T17:38:15.863Z,37.80
2023-02-26T17:40:36.416Z,46.70
2023-02-26T17:42:50.160Z,37.10
2023-02-26T17:45:02.888Z,29.60
2023-02-26T17:47:18.609Z,30.90
2023-02-26T17:49:31.165Z,32.10
2023-02-26T17:51:43.773Z,30.50
2023-02-26T17:53:56.349Z,22.60
2023-02-26T17:56:12.592Z,21.90
2023-02-26T17:58:32.379Z,21.60
2023-02-26T18:00:49.508Z,16.20
2023-02-26T18:03:03.539Z,25.60
2023-02-26T18:05:16.281Z,32.30
2023-02-26T18:07:28.836Z,23.50
2023-02-26T18:09:41.410Z,23.40
2023-02-26T18:11:54.129Z,17.40
2023-02-26T18:14:06.953Z,18.10
2023-02-26T18:16:22.918Z,16.30
2023-02-26T18:18:35.626Z,11.50
2023-02-26T18:20:48.682Z,10.90
2023-02-26T18:23:01.397Z,10.10
2023-02-26T18:25:15.166Z,17.50
2023-02-26T18:27:27.920Z,31.60
2023-02-26T18:29:40.757Z,18.40
2023-02-26T18:31:53.502Z,16.80
2023-02-26T18:34:06.148Z,38.30
2023-02-26T18:36:34.181Z,111.00
2023-02-26T18:38:47.006Z,142.80
2023-02-26T18:41:02.094Z,109.00
2023-02-26T18:43:15.250Z,41.60
2023-02-26T18:45:27.835Z,28.20
2023-02-26T18:47:41.052Z,24.70
2023-02-26T18:49:53.613Z,24.80
2023-02-26T18:52:06.153Z,25.60
2023-02-26T18:54:18.681Z,25.10
2023-02-26T18:56:31.236Z,30.40
2023-02-26T18:58:43.800Z,26.40
2023-02-26T19:00:56.856Z,22.90
2023-02-26T19:03:09.479Z,14.50
2023-02-26T19:05:24.563Z,12.10
2023-02-26T19:07:37.223Z,11.90
2023-02-26T19:09:49.848Z,14.00
2023-02-26T19:12:03.060Z,13.00
2023-02-26T19:14:16.172Z,11.40
2023-02-26T19:16:30.996Z,12.10
2023-02-26T19:18:43.649Z,14.40
2023-02-26T19:20:56.735Z,12.10
2023-02-26T19:23:09.706Z,14.40
2023-02-26T19:25:23.717Z,14.00
2023-02-26T19:27:37.320Z,14.20
2023-02-26T19:29:49.907Z,14.80
2023-02-26T19:32:04.532Z,14.90
2023-02-26T19:34:17.383Z,21.70
2023-02-26T19:36:33.499Z,19.20
2023-02-26T19:38:47.542Z,21.90
2023-02-26T19:41:00.596Z,21.10
2023-02-26T19:43:13.097Z,23.40
2023-02-26T19:45:25.666Z,22.60
2023-02-26T19:47:39.063Z,20.20
2023-02-26T19:49:51.751Z,19.70
2023-02-26T19:52:04.404Z,15.40
2023-02-26T19:54:17.194Z,23.20
2023-02-26T19:56:29.874Z,23.90
2023-02-26T19:58:43.494Z,33.30
2023-02-26T20:00:58.011Z,37.90
2023-02-26T20:03:10.779Z,36.50
2023-02-26T20:05:23.428Z,42.80
2023-02-26T20:07:36.171Z,54.50
2023-02-26T20:09:49.739Z,61.50
2023-02-26T20:12:02.472Z,49.60
2023-02-26T20:14:15.171Z,36.50
2023-02-26T20:16:27.946Z,34.00
2023-02-26T20:18:40.800Z,30.40
2023-02-26T20:20:53.646Z,29.80
2023-02-26T20:23:06.253Z,29.90
2023-02-26T20:25:19.847Z,34.90
2023-02-26T20:27:32.875Z,43.60
2023-02-26T20:29:45.856Z,38.50
2023-02-26T20:31:59.175Z,32.10
2023-02-26T20:34:12.249Z,25.70
2023-02-26T20:36:24.806Z,26.50
2023-02-26T20:38:37.480Z,32.20
2023-02-26T20:40:50.239Z,29.00
2023-02-26T20:43:02.772Z,25.10
2023-02-26T20:45:15.350Z,23.40
2023-02-26T20:47:28.038Z,23.60
2023-02-26T20:49:40.642Z,30.30
2023-02-26T20:51:54.479Z,30.10
2023-02-26T20:54:07.384Z,33.30
2023-02-26T20:56:19.982Z,33.40
2023-02-26T20:58:32.880Z,30.70
2023-02-26T21:00:45.457Z,34.70
2023-02-26T21:02:58.275Z,35.00
2023-02-26T21:05:12.937Z,33.10
2023-02-26T21:07:25.489Z,33.30
2023-02-26T21:09:39.642Z,32.70
2023-02-26T21:11:52.504Z,26.40
2023-02-26T21:14:07.422Z,25.80
2023-02-26T21:16:20.577Z,175.40
2023-02-26T21:18:34.062Z,233.40
2023-02-26T21:20:49.656Z,260.00
2023-02-26T21:23:02.232Z,209.80
2023-02-26T21:25:14.896Z,56.10
2023-02-26T21:27:27.537Z,44.20
2023-02-26T21:29:40.054Z,23.40
2023-02-26T21:31:53.693Z,19.50
2023-02-26T21:34:30.225Z,18.20
2023-02-26T21:36:38.923Z,35.60
2023-02-26T21:38:51.488Z,32.00
2023-02-26T21:41:04.624Z,27.70
2023-02-26T21:43:17.196Z,30.30
2023-02-26T21:45:48.861Z,28.80
2023-02-26T21:48:03.563Z,26.60
2023-02-26T21:50:16.451Z,27.10
2023-02-26T21:52:29.137Z,22.70
2023-02-26T21:54:41.888Z,20.90
2023-02-26T21:56:54.713Z,25.80
2023-02-26T21:59:07.534Z,37.40
2023-02-26T22:01:20.194Z,67.70
2023-02-26T22:03:32.848Z,39.50
2023-02-26T22:05:45.464Z,26.30
2023-02-26T22:07:57.984Z,24.20
2023-02-26T22:10:12.619Z,31.40
2023-02-26T22:12:25.892Z,34.60
2023-02-26T22:14:38.520Z,30.10
2023-02-26T22:16:51.208Z,28.00
2023-02-26T22:19:04.069Z,25.20
2023-02-26T22:21:16.815Z,26.00
2023-02-26T22:23:29.390Z,21.90
2023-02-26T22:25:42.030Z,19.90
2023-02-26T22:27:54.584Z,18.10
2023-02-26T22:30:08.249Z,26.20
2023-02-26T22:32:20.862Z,54.40
2023-02-26T22:34:34.176Z,59.10
2023-02-26T22:36:46.748Z,49.00
2023-02-26T22:38:59.336Z,37.60
2023-02-26T22:41:11.923Z,32.30
2023-02-26T22:43:24.520Z,33.30
2023-02-26T22:45:37.081Z,27.80
2023-02-26T22:47:50.485Z,25.70
2023-02-26T22:50:03.670Z,28.70
2023-02-26T22:52:16.282Z,27.80
2023-02-26T22:54:28.991Z,21.60
2023-02-26T22:56:41.528Z,20.60
2023-02-26T22:58:54.495Z,17.00
2023-02-26T23:01:08.104Z,16.60
2023-02-26T23:03:20.693Z,17.10
2023-02-26T23:05:33.297Z,17.40
2023-02-26T23:07:46.228Z,19.60
2023-02-26T23:09:58.792Z,16.10
2023-02-26T23:12:11.536Z,10.40
2023-02-26T23:14:24.237Z,10.90
2023-02-26T23:16:36.762Z,14.50
2023-02-26T23:18:49.672Z,11.10
2023-02-26T23:21:02.824Z,11.50
2023-02-26T23:23:16.284Z,12.80
2023-02-26T23:25:28.938Z,10.80
2023-02-26T23:27:41.709Z,11.90
2023-02-26T23:29:54.303Z,12.90
2023-02-26T23:32:07.000Z,11.80
2023-02-26T23:34:19.584Z,10.00
2023-02-26T23:36:32.253Z,12.10
2023-02-26T23:38:44.795Z,14.20
2023-02-26T23:40:57.352Z,16.20
2023-02-26T23:43:09.942Z,16.40
2023-02-26T23:45:24.152Z,11.90
2023-02-26T23:47:37.491Z,11.10
2023-02-26T23:49:50.101Z,11.20
2023-02-26T23:52:02.704Z,10.40
2023-02-26T23:54:15.297Z,11.40
2023-02-26T23:56:27.910Z,10.20
2023-02-26T23:58:40.428Z,10.10
